Ana Sayfa
METAR-TAF:

METAR-TAF

Havaalanları :

Kinşasa, Kongo

Enlem: 04-23S, Boylam: 015-26E, yükseklik: 309 m

Güncel hava durumu gözlemi

Rapor saat 00:00 UTC de 51 dakika önce yapıldı.
Rüzgar güneydan 6 kt
Sıcaklık 22°C
Nem 83%
Basınç 1016 hPa
Görüş mesafesi: 6000 m
1600 ft yükseklikte az bulutlu

METAR: FZAA 210000Z 18006KT 6000 FEW016 22/19 Q1016 NOSIG

Saat: 01:51 (00:51 UTC)

Tahmin

Rapor saat 23:00 UTC de 1 saat ve 51 dakika önce yapıldı.
Ayın 21'si saat 00 UTC'den ayın 22'si saat 06 UTC'ye kadar geçerli Tahmin
Rüzgar güney/güneybatıdan 4 kt
Görüş mesafesi: 6000 m
1400 ft yükseklikte parçalı çok bulutlu
Dönüşüyor
ayın 21'si saat 03 UTC'den ayın 21'si saat 05 UTC'ye kadar
Görüş mesafesi: 3000 m
Pus
Ayın 21'si saat 1000 UTC'den
Rüzgar kuzeybatıdan 10 kt
Görüş mesafesi: 6000 m
2000 ft yükseklikte parçalı bulutlu

TAF: FZAA 202300Z 2100/2206 20004KT 6000 BKN014 BECMG 2103/2105 3000 BR FM211000 32010KT 6000 NSW SCT020

4.000'den fazla havaalanı için hava durumu gözlemleri ve tahminleri (METAR ve TAF raporları).

Kullanılabilir istasyonlar harita üzerinde sarı ve kırmızı noktalarla gösterilir.

İstasyonun adını görmek için fareyi noktanın üzerinde gezdirin.

Sonrasında hava gözlem ve tahminlerini görmek için tıklayın.

Haritayı değiştirmek için: yaklaştırmak için siyah artı işaretli yeşil düğmeye ve uzaklaştırmak için de eksi işaretli düğmeye hızla tıklayın; bitişik haritalar için yeşil okları kullanın.


METAR-TAF: